createdAt,value
2022-11-07T00:02:11.079Z,9.36
2022-11-07T00:04:39.576Z,9.24
2022-11-07T00:07:09.396Z,9.56
2022-11-07T00:09:38.055Z,9.45
2022-11-07T00:12:06.910Z,9.55
2022-11-07T00:14:35.390Z,9.48
2022-11-07T00:17:03.587Z,9.49
2022-11-07T00:19:32.005Z,9.49
2022-11-07T00:22:00.282Z,9.49
2022-11-07T00:24:30.131Z,9.67
2022-11-07T00:26:58.497Z,9.43
2022-11-07T00:29:27.018Z,9.35
2022-11-07T00:31:55.179Z,9.42
2022-11-07T00:34:23.751Z,9.14
2022-11-07T00:36:51.827Z,9.25
2022-11-07T00:39:20.353Z,8.91
2022-11-07T00:41:50.153Z,9.26
2022-11-07T00:44:18.620Z,8.99
2022-11-07T00:46:46.747Z,9.04
2022-11-07T00:49:15.119Z,8.98
2022-11-07T00:51:43.269Z,9.22
2022-11-07T00:54:11.830Z,9.16
2022-11-07T00:56:40.140Z,8.92
2022-11-07T00:59:10.269Z,9.45
2022-11-07T01:01:38.432Z,9.21
2022-11-07T01:04:24.377Z,9.04
2022-11-07T01:06:52.564Z,8.98
2022-11-07T01:09:22.957Z,9.26
2022-11-07T01:11:51.404Z,9.06
2022-11-07T01:14:23.029Z,9.41
2022-11-07T01:16:51.177Z,9.94
2022-11-07T01:19:20.149Z,9.09
2022-11-07T01:21:48.446Z,9.06
2022-11-07T01:24:17.428Z,9.17
2022-11-07T01:26:48.156Z,9.24
2022-11-07T01:29:16.890Z,9.26
2022-11-07T01:31:46.880Z,9.55
2022-11-07T01:34:17.142Z,9.33
2022-11-07T01:36:45.411Z,9.25
2022-11-07T01:39:13.850Z,9.33
2022-11-07T01:41:42.160Z,9.41
2022-11-07T01:44:48.042Z,9.76
2022-11-07T01:47:17.727Z,9.44
2022-11-07T01:49:46.149Z,9.17
2022-11-07T01:52:16.894Z,9.52
2022-11-07T01:54:49.839Z,9.79
2022-11-07T01:57:21.198Z,9.68
2022-11-07T01:59:50.330Z,9.48
2022-11-07T02:02:20.049Z,9.50
2022-11-07T02:04:48.789Z,9.11
2022-11-07T02:07:20.175Z,9.54
2022-11-07T02:09:49.723Z,9.59
2022-11-07T02:12:18.799Z,9.55
2022-11-07T02:14:47.172Z,9.25
2022-11-07T02:17:16.268Z,9.72
2022-11-07T02:19:47.629Z,10.05
2022-11-07T02:22:21.529Z,10.16
2022-11-07T02:24:54.073Z,10.01
2022-11-07T02:27:24.332Z,9.83
2022-11-07T02:29:56.200Z,9.80
2022-11-07T02:32:24.802Z,9.62
2022-11-07T02:34:57.422Z,10.03
2022-11-07T02:37:28.356Z,9.95
2022-11-07T02:39:58.723Z,10.11
2022-11-07T02:42:43.536Z,10.01
2022-11-07T02:45:14.043Z,9.99
2022-11-07T02:47:42.164Z,9.70
2022-11-07T02:50:12.046Z,9.97
2022-11-07T02:52:40.219Z,9.85
2022-11-07T02:55:11.265Z,10.22
2022-11-07T02:57:39.833Z,10.12
2022-11-07T03:00:10.675Z,10.27
2022-11-07T03:02:39.133Z,9.94
2022-11-07T03:05:08.399Z,10.22
2022-11-07T03:07:36.515Z,9.96
2022-11-07T03:10:05.671Z,10.10
2022-11-07T03:12:35.306Z,10.24
2022-11-07T03:15:04.135Z,9.99
2022-11-07T03:17:32.454Z,10.03
2022-11-07T03:20:01.271Z,10.07
2022-11-07T03:22:29.541Z,10.00
2022-11-07T03:24:58.020Z,9.87
2022-11-07T03:27:26.200Z,9.88
2022-11-07T03:29:56.216Z,10.21
2022-11-07T03:32:24.389Z,9.86
2022-11-07T03:34:52.785Z,9.76
2022-11-07T03:37:20.837Z,9.76
2022-11-07T03:39:49.364Z,9.69
2022-11-07T03:42:17.470Z,9.71
2022-11-07T03:44:45.959Z,9.75
2022-11-07T03:47:15.471Z,10.05
2022-11-07T03:49:44.007Z,9.75
2022-11-07T03:52:12.126Z,9.50
2022-11-07T03:54:40.757Z,9.54
2022-11-07T03:57:08.899Z,9.47
2022-11-07T03:59:37.474Z,9.59
2022-11-07T04:02:05.740Z,9.62
2022-11-07T04:04:36.066Z,9.99
2022-11-07T04:07:04.344Z,9.58
2022-11-07T04:09:32.829Z,9.60
2022-11-07T04:12:18.510Z,9.60
2022-11-07T04:15:04.120Z,9.43
2022-11-07T04:17:32.523Z,9.45
2022-11-07T04:20:02.489Z,9.71
2022-11-07T04:22:30.612Z,9.44
2022-11-07T04:24:59.136Z,9.23
2022-11-07T04:27:44.181Z,9.37
2022-11-07T04:30:20.478Z,9.86
2022-11-07T04:32:49.295Z,9.87
2022-11-07T04:35:19.946Z,10.26
2022-11-07T04:37:48.490Z,10.06
2022-11-07T04:40:17.989Z,10.16
2022-11-07T04:42:46.285Z,10.08
2022-11-07T04:45:15.611Z,10.23
2022-11-07T04:47:44.005Z,10.13
2022-11-07T04:50:14.413Z,10.50
2022-11-07T04:52:44.137Z,10.47
2022-11-07T04:55:19.160Z,10.52
2022-11-07T04:57:47.235Z,9.95
2022-11-07T05:00:17.021Z,10.22
2022-11-07T05:02:45.278Z,10.09
2022-11-07T05:05:14.184Z,10.27
2022-11-07T05:07:44.054Z,10.51
2022-11-07T05:10:18.561Z,10.72
2022-11-07T05:12:46.956Z,10.20
2022-11-07T05:15:16.086Z,10.45
2022-11-07T05:17:44.601Z,10.48
2022-11-07T05:20:26.184Z,10.99
2022-11-07T05:23:15.961Z,11.46
2022-11-07T05:25:45.768Z,10.78
2022-11-07T05:28:15.943Z,10.81
2022-11-07T05:30:45.894Z,10.77
2022-11-07T05:33:16.384Z,10.67
2022-11-07T05:35:45.482Z,10.43
2022-11-07T05:38:15.210Z,10.73
2022-11-07T05:40:43.671Z,10.33
2022-11-07T05:43:14.174Z,10.64
2022-11-07T05:45:46.622Z,10.58
2022-11-07T05:48:15.367Z,10.46
2022-11-07T05:50:43.897Z,10.36
2022-11-07T05:53:12.423Z,10.36
2022-11-07T05:55:43.873Z,10.51
2022-11-07T05:58:12.949Z,10.54
2022-11-07T06:00:42.018Z,10.47
2022-11-07T06:03:11.020Z,10.38
2022-11-07T06:05:40.268Z,10.50
2022-11-07T06:08:09.758Z,10.36
2022-11-07T06:10:38.507Z,10.27
2022-11-07T06:13:10.895Z,10.63
2022-11-07T06:15:40.561Z,10.51
2022-11-07T06:18:13.012Z,10.54
2022-11-07T06:20:41.447Z,10.28
2022-11-07T06:23:10.166Z,10.46
2022-11-07T06:25:39.132Z,10.52
2022-11-07T06:28:10.538Z,10.77
2022-11-07T06:30:39.124Z,10.45
2022-11-07T06:33:09.661Z,10.83
2022-11-07T06:35:38.351Z,10.62
2022-11-07T06:38:07.553Z,10.85
2022-11-07T06:40:36.482Z,10.75
2022-11-07T06:43:10.560Z,10.95
2022-11-07T06:45:39.670Z,10.69
2022-11-07T06:48:09.228Z,10.94
2022-11-07T06:50:38.120Z,10.79
2022-11-07T06:53:07.861Z,10.91
2022-11-07T06:55:36.934Z,10.92
2022-11-07T06:58:05.791Z,11.05
2022-11-07T07:00:37.135Z,11.45
2022-11-07T07:03:06.054Z,11.19
2022-11-07T07:05:35.023Z,11.22
2022-11-07T07:08:03.550Z,11.30
2022-11-07T07:10:31.980Z,11.22
2022-11-07T07:13:01.423Z,11.53
2022-11-07T07:15:42.109Z,11.21
2022-11-07T07:18:19.751Z,11.65
2022-11-07T07:20:48.330Z,11.50
2022-11-07T07:23:16.853Z,11.56
2022-11-07T07:25:45.476Z,11.54
2022-11-07T07:28:14.056Z,11.70
2022-11-07T07:30:44.836Z,11.67
2022-11-07T07:33:17.401Z,11.68
2022-11-07T07:35:50.155Z,12.02
2022-11-07T07:38:18.328Z,11.77
2022-11-07T07:40:46.859Z,11.85
2022-11-07T07:43:15.474Z,11.71
2022-11-07T07:45:44.337Z,11.70
2022-11-07T07:48:12.457Z,11.61
2022-11-07T07:50:40.971Z,11.84
2022-11-07T07:53:10.907Z,12.20
2022-11-07T07:55:39.449Z,11.84
2022-11-07T07:58:07.740Z,11.76
2022-11-07T08:00:36.938Z,11.79
2022-11-07T08:03:10.088Z,12.02
2022-11-07T08:05:39.190Z,11.70
2022-11-07T08:08:08.768Z,11.85
2022-11-07T08:10:42.991Z,11.93
2022-11-07T08:13:11.785Z,11.59
2022-11-07T08:15:40.446Z,11.69
2022-11-07T08:18:08.600Z,11.59
2022-11-07T08:20:37.113Z,11.74
2022-11-07T08:23:09.893Z,12.24
2022-11-07T08:25:45.328Z,12.43
2022-11-07T08:28:13.606Z,12.23
2022-11-07T08:30:42.137Z,12.20
2022-11-07T08:33:10.462Z,12.41
2022-11-07T08:35:42.555Z,12.30
2022-11-07T08:38:11.116Z,12.28
2022-11-07T08:40:39.765Z,12.26
2022-11-07T08:45:37.763Z,12.25
2022-11-07T08:48:06.517Z,12.33
2022-11-07T08:50:35.100Z,12.40
2022-11-07T08:53:03.605Z,12.62
2022-11-07T08:55:32.222Z,12.70
2022-11-07T08:58:01.059Z,12.54
2022-11-07T09:00:31.720Z,12.78
2022-11-07T09:04:12.615Z,12.86
2022-11-07T09:05:52.006Z,12.66
2022-11-07T09:08:20.712Z,12.69
2022-11-07T09:10:49.274Z,12.68
2022-11-07T09:13:17.859Z,12.27
2022-11-07T09:15:51.563Z,12.75
2022-11-07T09:18:20.601Z,12.04
2022-11-07T09:20:49.246Z,12.11
2022-11-07T09:23:17.899Z,12.23
2022-11-07T09:25:47.161Z,12.49
2022-11-07T09:28:16.022Z,12.42
2022-11-07T09:30:45.019Z,12.67
2022-11-07T09:33:14.937Z,13.00
2022-11-07T09:35:43.795Z,13.01
2022-11-07T09:38:12.071Z,13.05
2022-11-07T09:40:46.559Z,13.67
2022-11-07T09:43:33.788Z,14.18
2022-11-07T09:46:06.189Z,14.02
2022-11-07T09:48:41.509Z,14.32
2022-11-07T09:51:15.392Z,14.20
2022-11-07T09:53:46.551Z,14.23
2022-11-07T09:56:14.920Z,14.88
2022-11-07T09:58:44.047Z,14.33
2022-11-07T10:01:14.756Z,14.63
2022-11-07T10:04:10.319Z,14.77
2022-11-07T10:06:34.674Z,14.87
2022-11-07T10:09:11.381Z,15.20
2022-11-07T10:11:42.575Z,15.73
2022-11-07T10:14:18.996Z,16.42
2022-11-07T10:17:04.543Z,17.37
2022-11-07T10:19:43.272Z,17.90
2022-11-07T10:22:20.611Z,18.31
2022-11-07T10:25:02.235Z,19.34
2022-11-07T10:27:32.914Z,19.82
2022-11-07T10:30:02.095Z,20.06
2022-11-07T10:32:37.531Z,19.71
2022-11-07T10:35:17.256Z,19.49
2022-11-07T10:37:54.813Z,19.53
2022-11-07T10:40:23.620Z,19.80
2022-11-07T10:42:52.415Z,20.70
2022-11-07T10:45:20.742Z,21.95
2022-11-07T10:47:57.727Z,23.29
2022-11-07T10:50:27.568Z,24.33
2022-11-07T10:52:57.082Z,25.33
2022-11-07T10:55:25.980Z,26.20
2022-11-07T10:57:57.868Z,27.21
2022-11-07T11:00:28.031Z,27.69
2022-11-07T11:02:57.844Z,27.49
2022-11-07T11:05:42.214Z,27.32
2022-11-07T11:08:17.381Z,27.04
2022-11-07T11:10:46.375Z,27.11
2022-11-07T11:13:28.410Z,27.98
2022-11-07T11:16:05.815Z,27.85
2022-11-07T11:18:34.667Z,27.45
2022-11-07T11:21:06.876Z,27.85
2022-11-07T11:23:38.301Z,27.64
2022-11-07T11:26:08.769Z,27.62
2022-11-07T11:28:41.105Z,28.08
2022-11-07T11:31:13.147Z,27.89
2022-11-07T11:33:45.182Z,27.70
2022-11-07T11:36:19.360Z,27.36
2022-11-07T11:38:54.458Z,26.43
2022-11-07T11:41:26.111Z,25.76
2022-11-07T11:43:57.920Z,24.87
2022-11-07T11:46:29.905Z,24.23
2022-11-07T11:49:00.956Z,22.44
2022-11-07T11:51:38.061Z,21.21
2022-11-07T11:54:09.920Z,19.96
2022-11-07T11:56:49.423Z,19.12
2022-11-07T11:59:45.247Z,18.52
2022-11-07T12:02:44.472Z,17.82
2022-11-07T12:05:24.904Z,17.05
2022-11-07T12:08:03.329Z,16.53
2022-11-07T12:10:36.685Z,16.22
2022-11-07T12:13:11.860Z,16.06
2022-11-07T12:15:52.303Z,15.77
2022-11-07T12:18:26.956Z,15.52
2022-11-07T12:21:06.616Z,15.57
2022-11-07T12:23:56.849Z,15.63
2022-11-07T12:26:29.715Z,15.28
2022-11-07T12:29:06.307Z,15.04
2022-11-07T12:31:44.185Z,15.15
2022-11-07T12:34:23.516Z,15.02
2022-11-07T12:37:07.122Z,14.98
2022-11-07T12:39:48.348Z,14.88
2022-11-07T12:42:19.612Z,15.11
2022-11-07T12:45:00.769Z,14.75
2022-11-07T12:47:36.169Z,14.94
2022-11-07T12:50:12.633Z,14.38
2022-11-07T12:52:50.639Z,14.26
2022-11-07T12:55:24.143Z,14.23
2022-11-07T12:57:54.244Z,13.98
2022-11-07T13:00:29.243Z,13.97
2022-11-07T13:03:20.120Z,14.20
2022-11-07T13:06:02.362Z,13.95
2022-11-07T13:08:35.354Z,13.94
2022-11-07T13:11:09.097Z,13.95
2022-11-07T13:13:56.155Z,14.00
2022-11-07T13:16:27.041Z,13.72
2022-11-07T13:18:55.653Z,13.24
2022-11-07T13:21:24.219Z,13.21
2022-11-07T13:23:53.301Z,13.32
2022-11-07T13:26:46.781Z,13.72
2022-11-07T13:29:35.837Z,13.83
2022-11-07T13:32:12.268Z,13.68
2022-11-07T13:34:43.664Z,13.61
2022-11-07T13:37:17.889Z,13.96
2022-11-07T13:39:48.526Z,13.82
2022-11-07T13:42:19.488Z,13.77
2022-11-07T13:44:54.213Z,13.91
2022-11-07T13:47:27.451Z,13.74
2022-11-07T13:50:00.080Z,13.68
2022-11-07T13:52:36.126Z,13.73
2022-11-07T13:55:08.137Z,13.70
2022-11-07T13:57:40.781Z,13.57
2022-11-07T14:00:14.746Z,13.51
2022-11-07T14:02:52.421Z,13.53
2022-11-07T14:05:24.055Z,13.31
2022-11-07T14:07:55.353Z,13.21
2022-11-07T14:10:27.496Z,13.24
2022-11-07T14:13:04.296Z,13.27
2022-11-07T14:15:32.948Z,12.98
2022-11-07T14:18:01.325Z,12.88
2022-11-07T14:20:30.028Z,12.75
2022-11-07T14:23:01.110Z,12.82
2022-11-07T14:25:31.338Z,12.88
2022-11-07T14:28:01.465Z,12.82
2022-11-07T14:30:31.878Z,12.86
2022-11-07T14:33:02.207Z,12.82
2022-11-07T14:35:32.137Z,12.76
2022-11-07T14:38:00.940Z,12.49
2022-11-07T14:40:30.030Z,12.50
2022-11-07T14:42:58.161Z,12.46
2022-11-07T14:45:57.009Z,12.82
2022-11-07T14:48:20.139Z,12.71
2022-11-07T14:50:49.604Z,12.44
2022-11-07T14:53:21.083Z,12.63
2022-11-07T14:55:51.830Z,12.51
2022-11-07T14:58:22.819Z,12.47
2022-11-07T15:00:57.071Z,12.89
2022-11-07T15:03:31.974Z,12.41
2022-11-07T15:06:00.511Z,12.02
2022-11-07T15:08:30.967Z,12.19
2022-11-07T15:11:05.643Z,12.27
2022-11-07T15:13:34.985Z,11.96
2022-11-07T15:16:07.597Z,12.00
2022-11-07T15:18:39.808Z,12.05
2022-11-07T15:21:09.540Z,11.72
2022-11-07T15:23:37.730Z,11.52
2022-11-07T15:26:22.457Z,12.14
2022-11-07T15:28:52.356Z,11.81
2022-11-07T15:31:24.061Z,11.76
2022-11-07T15:33:52.071Z,12.27
2022-11-07T15:36:20.895Z,11.41
2022-11-07T15:38:50.191Z,11.44
2022-11-07T15:41:18.832Z,11.27
2022-11-07T15:43:47.088Z,11.16
2022-11-07T15:46:26.926Z,11.69
2022-11-07T15:48:55.486Z,11.31
2022-11-07T15:51:24.029Z,11.13
2022-11-07T15:53:52.473Z,11.19
2022-11-07T15:56:23.551Z,11.37
2022-11-07T15:58:52.242Z,11.02
2022-11-07T16:01:22.068Z,10.85
2022-11-07T16:03:50.516Z,10.84
2022-11-07T16:06:24.195Z,11.11
2022-11-07T16:08:52.356Z,10.80
2022-11-07T16:11:20.969Z,10.64
2022-11-07T16:13:50.858Z,10.70
2022-11-07T16:16:23.007Z,10.94
2022-11-07T16:18:52.693Z,10.74
2022-11-07T16:21:21.732Z,10.67
2022-11-07T16:23:50.223Z,10.45
2022-11-07T16:26:21.387Z,10.64
2022-11-07T16:28:50.214Z,10.46
2022-11-07T16:31:18.821Z,10.45
2022-11-07T16:33:48.407Z,10.61
2022-11-07T16:36:23.077Z,10.51
2022-11-07T16:38:51.522Z,10.39
2022-11-07T16:41:20.379Z,10.33
2022-11-07T16:43:49.221Z,10.32
2022-11-07T16:46:22.502Z,10.44
2022-11-07T16:48:54.038Z,10.53
2022-11-07T16:51:23.539Z,10.37
2022-11-07T16:53:51.820Z,10.11
2022-11-07T16:56:25.121Z,10.46
2022-11-07T16:58:54.723Z,10.07
2022-11-07T17:01:24.513Z,10.16
2022-11-07T17:03:54.841Z,10.33
2022-11-07T17:06:28.316Z,10.37
2022-11-07T17:09:04.083Z,9.87
2022-11-07T17:11:35.846Z,10.02
2022-11-07T17:14:04.084Z,9.95
2022-11-07T17:16:35.021Z,10.26
2022-11-07T17:19:05.479Z,10.29
2022-11-07T17:21:36.733Z,10.16
2022-11-07T17:24:05.975Z,9.96
2022-11-07T17:26:37.789Z,10.08
2022-11-07T17:29:05.972Z,10.55
2022-11-07T17:31:34.652Z,9.95
2022-11-07T17:34:04.272Z,10.13
2022-11-07T17:36:37.396Z,10.15
2022-11-07T17:39:11.021Z,10.02
2022-11-07T17:41:40.149Z,9.94
2022-11-07T17:44:08.432Z,9.78
2022-11-07T17:46:38.458Z,9.92
2022-11-07T17:49:09.074Z,10.08
2022-11-07T17:51:37.841Z,9.77
2022-11-07T17:54:06.390Z,9.77
2022-11-07T17:56:35.395Z,9.73
2022-11-07T17:59:06.111Z,9.88
2022-11-07T18:01:36.786Z,9.85
2022-11-07T18:04:07.592Z,9.70
2022-11-07T18:06:37.440Z,9.87
2022-11-07T18:09:07.661Z,9.95
2022-11-07T18:11:36.701Z,9.59
2022-11-07T18:14:05.021Z,9.49
2022-11-07T18:16:36.302Z,9.79
2022-11-07T18:19:05.621Z,9.64
2022-11-07T18:21:35.683Z,9.81
2022-11-07T18:24:04.019Z,9.49
2022-11-07T18:26:33.558Z,9.46
2022-11-07T18:29:03.179Z,9.71
2022-11-07T18:31:31.904Z,9.55
2022-11-07T18:34:01.610Z,9.68
2022-11-07T18:36:30.819Z,9.51
2022-11-07T18:39:04.719Z,9.79
2022-11-07T18:41:33.153Z,9.34
2022-11-07T18:44:04.742Z,9.47
2022-11-07T18:46:34.055Z,9.47
2022-11-07T18:49:02.299Z,9.48
2022-11-07T18:51:30.808Z,9.42
2022-11-07T18:54:01.156Z,9.61
2022-11-07T18:56:31.300Z,9.75
2022-11-07T18:58:59.719Z,9.52
2022-11-07T19:01:30.942Z,9.59
2022-11-07T19:04:01.347Z,9.48
2022-11-07T19:06:31.314Z,9.47
2022-11-07T19:08:59.725Z,9.35
2022-11-07T19:11:31.376Z,9.43
2022-11-07T19:14:02.028Z,9.51
2022-11-07T19:16:30.978Z,9.28
2022-11-07T19:19:00.043Z,9.39
2022-11-07T19:21:28.851Z,9.21
2022-11-07T19:23:57.198Z,9.17
2022-11-07T19:26:25.717Z,9.22
2022-11-07T19:28:55.831Z,9.36
2022-11-07T19:31:24.405Z,9.13
2022-11-07T19:33:52.601Z,9.22
2022-11-07T19:36:21.980Z,9.56
2022-11-07T19:38:51.632Z,9.34
2022-11-07T19:41:20.466Z,9.28
2022-11-07T19:43:50.260Z,9.44
2022-11-07T19:46:22.152Z,9.60
2022-11-07T19:48:51.709Z,9.43
2022-11-07T19:51:23.043Z,9.37
2022-11-07T19:53:55.862Z,9.54
2022-11-07T19:56:25.155Z,9.22
2022-11-07T19:58:54.510Z,9.07
2022-11-07T20:01:26.439Z,9.41
2022-11-07T20:03:55.881Z,9.15
2022-11-07T20:06:26.723Z,9.32
2022-11-07T20:08:54.998Z,9.20
2022-11-07T20:11:25.429Z,9.43
2022-11-07T20:13:58.630Z,9.32
2022-11-07T20:16:30.268Z,9.38
2022-11-07T20:18:58.727Z,9.22
2022-11-07T20:21:29.229Z,9.14
2022-11-07T20:23:59.596Z,9.28
2022-11-07T20:26:29.551Z,9.34
2022-11-07T20:28:57.728Z,9.08
2022-11-07T20:31:27.679Z,9.24
2022-11-07T20:33:58.794Z,9.36
2022-11-07T20:36:27.346Z,9.90
2022-11-07T20:38:56.366Z,9.17
2022-11-07T20:41:28.004Z,9.27
2022-11-07T20:43:57.305Z,9.10
2022-11-07T20:46:25.786Z,8.98
2022-11-07T20:48:54.215Z,8.98
2022-11-07T20:51:25.367Z,9.25
2022-11-07T20:53:54.758Z,9.02
2022-11-07T20:56:24.448Z,9.14
2022-11-07T20:58:52.665Z,9.02
2022-11-07T21:01:24.270Z,9.27
2022-11-07T21:03:52.670Z,9.02
2022-11-07T21:06:21.484Z,8.96
2022-11-07T21:08:51.418Z,9.19
2022-11-07T21:11:20.000Z,8.95
2022-11-07T21:13:52.945Z,8.92
2022-11-07T21:16:22.276Z,9.01
2022-11-07T21:18:50.916Z,8.98
2022-11-07T21:21:20.789Z,9.13
2022-11-07T21:23:51.666Z,9.27
2022-11-07T21:26:22.875Z,9.23
2022-11-07T21:28:51.575Z,9.13
2022-11-07T21:31:23.799Z,9.33
2022-11-07T21:33:52.190Z,9.00
2022-11-07T21:36:22.124Z,9.14
2022-11-07T21:38:51.915Z,9.34
2022-11-07T21:41:20.471Z,9.04
2022-11-07T21:43:48.836Z,9.02
2022-11-07T21:46:19.633Z,9.28
2022-11-07T21:48:48.416Z,9.29
2022-11-07T21:51:18.811Z,9.33
2022-11-07T21:53:47.621Z,9.14
2022-11-07T21:56:22.713Z,9.33
2022-11-07T21:58:51.653Z,9.18
2022-11-07T22:01:20.537Z,9.01
2022-11-07T22:04:05.959Z,9.10
2022-11-07T22:06:36.443Z,9.23
2022-11-07T22:09:05.359Z,9.19
2022-11-07T22:11:35.820Z,9.39
2022-11-07T22:14:04.317Z,9.10
2022-11-07T22:16:33.207Z,9.13
2022-11-07T22:19:01.501Z,9.14
2022-11-07T22:21:32.646Z,9.23
2022-11-07T22:24:00.803Z,9.21
2022-11-07T22:26:29.678Z,9.19
2022-11-07T22:28:59.307Z,9.46
2022-11-07T22:31:30.275Z,9.40
2022-11-07T22:34:00.197Z,9.37
2022-11-07T22:36:29.339Z,9.29
2022-11-07T22:38:58.337Z,9.28
2022-11-07T22:41:27.965Z,9.34
2022-11-07T22:43:56.973Z,9.30
2022-11-07T22:46:28.426Z,9.38
2022-11-07T22:48:57.097Z,9.22
2022-11-07T22:51:27.695Z,9.41
2022-11-07T22:53:59.581Z,9.49
2022-11-07T22:56:28.058Z,9.06
2022-11-07T22:58:56.333Z,9.09
2022-11-07T23:01:27.978Z,9.46
2022-11-07T23:03:56.606Z,9.81
2022-11-07T23:06:26.215Z,9.25
2022-11-07T23:08:54.945Z,8.96
2022-11-07T23:11:47.207Z,9.18
2022-11-07T23:14:15.314Z,9.14
2022-11-07T23:16:47.925Z,9.19
2022-11-07T23:19:17.792Z,8.98
2022-11-07T23:21:46.263Z,8.69
2022-11-07T23:24:14.904Z,8.90
2022-11-07T23:26:43.388Z,8.79
2022-11-07T23:29:13.734Z,9.10
2022-11-07T23:31:43.088Z,8.85
2022-11-07T23:34:12.893Z,9.07
2022-11-07T23:36:44.422Z,8.87
2022-11-07T23:39:14.598Z,8.99
2022-11-07T23:41:43.371Z,8.91
2022-11-07T23:44:12.057Z,8.79
2022-11-07T23:46:58.013Z,8.95
2022-11-07T23:49:50.364Z,9.28
2022-11-07T23:52:18.910Z,9.06
2022-11-07T23:55:04.462Z,9.07
2022-11-07T23:57:55.251Z,9.33
